Airfield :
LOGIN :

Register | Disclaimer

   EN    FR    IT 

 










Legend :    VFR   Marginal VFR   IFR   Intensive IFR   Very Intensive IFR
Visi :
Ceiling :
>= 8 km
>= 3000ft
5 to 8 km
1000 to 3000 ft
1500m to 5 km
500 to 1000 ft
800 to 1500m
200 to 500 ft
< 800m
< 200 ft
Symbols :   Thunderstorms  Fog  Heavy snow  Heavy precipitations  Wind > 20 kt
SIGMETs :     Misc.  Thunderstorms  Icing  Turbulence  Mountain Waves  Volcanic Ashes






- Airport Elevation : 656 ft
- IATA code : CMN


GMMN - Casablanca Mohammed V

CURRENT METAR :
  • 211700Z 01015KT 340V040 9999 FEW030 21/12 Q1019 NOSIG

EXPIRED METARs :
  • 211630Z 01016KT 9999 FEW030 20/11 Q1019 NOSIG
  • 211600Z 01014KT 340V050 9999 FEW030 21/12 Q1019 NOSIG
  • 211530Z 36014KT 320V040 9999 FEW030 22/11 Q1019 NOSIG
  • 211500Z 36017KT 330V030 9999 FEW030 22/11 Q1018 NOSIG
  • 211430Z 36013KT 330V040 9999 FEW030 22/11 Q1019 NOSIG
  • 211400Z 36011KT 330V050 9999 SCT030 22/11 Q1019 NOSIG
  • 211330Z 36014KT 320V050 9999 SCT030 23/13 Q1019 NOSIG
  • 211300Z 03010KT 320V080 9999 SCT030 22/12 Q1019 NOSIG
  • 211230Z 03009KT 340V090 9999 SCT030 22/11 Q1019 NOSIG

TAF TAF GMMN
Valid from the 21 at 18:00 until the 23 at 00:00 UTC


211700Z 2118/2224 02013KT 9999 SCT020
BECMG 2120/2122 06005KT
PROB30
TEMPO 2203/2208 BKN010
BECMG 2213/2215 36015KT
BECMG 2219/2221 05006KT



MET'MAP, your aeronautical weather chart ! - Copyright ORBIFLY December 2007 - Disclaimer

ORBIFLY MET'MAP TEAM :

Programming & Development : Alexandra Zaïnal
Original concept : Baudouin d'Aumeries
Technical & hardware support : Manuel Goepfert
Assistance : Marc-Olivier Méhu




SOURCES & CREDITS :

   NOAA